Time;durP1;ratioP1;P1;durP2;ratioP2;P2;SDS_P1;SDS_P2;PMS_P1;PMS_P2;Temp;Humidity;BMP_temperature;BMP_pressure;BME280_temperature;BME280_humidity;BME280_pressure;Samples;Min_cycle;Max_cycle;Signal;HPM_P1;HPM_P2
2022/01/07 00:01:08;;;;;;;8.30;1.07;;;6.40;99.90;;;;;;5109087;28;20175;-69
2022/01/07 00:03:34;;;;;;;13.90;1.20;;;6.30;99.90;;;;;;5091314;28;20182;-69
2022/01/07 00:06:00;;;;;;;16.90;1.27;;;6.30;99.90;;;;;;5089675;28;20184;-69
2022/01/07 00:08:28;;;;;;;11.37;1.40;;;6.20;99.90;;;;;;5091393;28;20176;-68
2022/01/07 00:10:54;;;;;;;8.73;0.63;;;6.20;99.90;;;;;;5091388;28;20175;-70
2022/01/07 00:13:20;;;;;;;12.13;1.47;;;6.30;99.90;;;;;;5091182;28;20250;-71
2022/01/07 00:15:46;;;;;;;10.53;1.40;;;6.40;99.90;;;;;;5094768;28;20171;-70
2022/01/07 00:18:11;;;;;;;7.70;1.57;;;6.40;99.90;;;;;;5091137;28;20605;-70
2022/01/07 00:20:38;;;;;;;7.63;1.40;;;6.50;99.90;;;;;;5094417;28;20194;-69
2022/01/07 00:23:04;;;;;;;15.67;1.80;;;6.50;99.90;;;;;;5111243;28;20251;-69
2022/01/07 00:25:30;;;;;;;20.33;1.80;;;6.50;99.90;;;;;;5108154;28;20171;-70
2022/01/07 00:27:56;;;;;;;12.27;2.10;;;6.60;99.90;;;;;;5091737;28;20175;-61
2022/01/07 00:30:22;;;;;;;16.87;1.87;;;6.70;99.90;;;;;;5099489;28;20197;-71
2022/01/07 00:32:49;;;;;;;19.50;2.73;;;6.80;99.90;;;;;;5111480;28;20617;-70
2022/01/07 00:35:16;;;;;;;7.57;1.93;;;6.80;99.90;;;;;;5096961;28;20176;-71
2022/01/07 00:37:43;;;;;;;12.57;1.67;;;6.90;99.90;;;;;;5096350;28;20708;-70
2022/01/07 00:40:16;;;;;;;13.03;1.93;;;7.00;99.90;;;;;;5109741;28;20684;-71
2022/01/07 00:42:42;;;;;;;13.23;1.50;;;6.90;99.90;;;;;;5108355;28;20206;-70
2022/01/07 00:45:09;;;;;;;7.93;1.03;;;6.80;99.90;;;;;;5097816;28;20195;-72
2022/01/07 00:47:35;;;;;;;10.70;1.73;;;6.60;99.90;;;;;;5106710;28;20646;-70
2022/01/07 00:50:01;;;;;;;12.03;1.60;;;6.50;99.90;;;;;;5100442;28;20255;-70
2022/01/07 00:52:27;;;;;;;11.43;1.53;;;6.50;99.90;;;;;;5089886;28;20263;-69
2022/01/07 00:54:54;;;;;;;16.43;1.80;;;6.50;99.90;;;;;;5090733;28;20176;-70
2022/01/07 00:57:19;;;;;;;9.50;1.67;;;6.50;99.90;;;;;;5095316;28;20172;-71
2022/01/07 00:59:46;;;;;;;8.80;1.33;;;5.80;99.90;;;;;;5111259;28;20215;-73
2022/01/07 01:02:12;;;;;;;7.07;0.70;;;5.60;99.90;;;;;;5091916;28;20179;-73
2022/01/07 01:04:38;;;;;;;7.93;1.50;;;5.10;99.90;;;;;;5090952;28;20207;-74
2022/01/07 01:07:04;;;;;;;2.43;0.70;;;4.90;99.90;;;;;;5090743;28;20176;-72
2022/01/07 01:09:30;;;;;;;7.70;1.10;;;4.70;99.90;;;;;;5090705;28;20183;-71
2022/01/07 01:11:57;;;;;;;4.70;0.50;;;4.60;99.90;;;;;;5090754;28;20176;-72
2022/01/07 01:14:23;;;;;;;5.70;0.93;;;4.50;99.90;;;;;;5090789;28;20225;-71
2022/01/07 01:16:51;;;;;;;10.00;1.17;;;4.50;99.90;;;;;;5094263;28;20168;-72
2022/01/07 01:19:17;;;;;;;7.03;0.93;;;4.40;99.90;;;;;;5090678;28;20208;-73
2022/01/07 01:21:43;;;;;;;10.53;0.93;;;4.40;99.90;;;;;;5089361;28;20180;-72
2022/01/07 01:24:12;;;;;;;7.77;0.90;;;4.40;99.90;;;;;;5090244;28;20748;-72
2022/01/07 01:26:38;;;;;;;7.23;1.27;;;5.60;99.90;;;;;;5089165;28;20175;-71
2022/01/07 01:29:04;;;;;;;7.00;0.73;;;4.30;99.90;;;;;;5090661;28;20176;-72
2022/01/07 01:31:31;;;;;;;4.17;0.93;;;4.40;99.90;;;;;;5107774;28;20657;-74
2022/01/07 01:33:56;;;;;;;4.83;0.93;;;4.40;99.90;;;;;;5115101;28;20190;-75
2022/01/07 01:36:22;;;;;;;7.67;0.83;;;4.40;99.90;;;;;;5102334;28;20176;-76
2022/01/07 01:38:48;;;;;;;6.37;0.80;;;4.40;99.90;;;;;;5093997;28;20690;-76
2022/01/07 01:41:14;;;;;;;11.50;1.10;;;4.50;99.90;;;;;;5101592;28;20182;-76
2022/01/07 01:43:40;;;;;;;6.90;1.43;;;4.50;99.90;;;;;;5102382;28;20647;-76
2022/01/07 01:46:06;;;;;;;12.60;1.30;;;4.50;99.90;;;;;;5094202;28;20206;-71
2022/01/07 01:48:32;;;;;;;6.73;0.80;;;4.40;99.90;;;;;;5108634;28;20175;-71
2022/01/07 01:50:58;;;;;;;10.30;1.13;;;4.50;99.90;;;;;;5112838;28;20183;-72
2022/01/07 01:53:26;;;;;;;6.60;1.10;;;4.50;99.90;;;;;;5099679;28;20179;-71
2022/01/07 01:55:53;;;;;;;8.83;0.80;;;4.50;99.90;;;;;;5093758;28;20168;-69
2022/01/07 01:58:19;;;;;;;6.70;0.90;;;4.50;99.90;;;;;;5094050;28;20264;-72
2022/01/07 02:00:45;;;;;;;11.60;1.60;;;4.60;99.90;;;;;;5097555;28;20188;-72
2022/01/07 02:03:11;;;;;;;6.63;1.00;;;4.70;99.90;;;;;;5114448;28;20203;-70
2022/01/07 02:05:36;;;;;;;9.77;1.23;;;4.90;99.90;;;;;;5112049;27;20662;-70
2022/01/07 02:08:02;;;;;;;6.30;0.90;;;4.90;99.90;;;;;;5093946;28;20167;-70
2022/01/07 02:10:28;;;;;;;9.27;1.17;;;4.90;99.90;;;;;;5093766;28;20251;-70
2022/01/07 02:12:55;;;;;;;10.13;1.00;;;5.00;99.90;;;;;;5097292;28;20172;-70
2022/01/07 02:15:21;;;;;;;11.33;1.40;;;5.00;99.90;;;;;;5093798;28;20176;-70
2022/01/07 02:17:49;;;;;;;9.53;1.10;;;5.00;99.90;;;;;;5093694;28;20171;-70
2022/01/07 02:20:18;;;;;;;11.10;1.10;;;5.00;99.90;;;;;;5093489;28;20615;-70
2022/01/07 02:22:44;;;;;;;19.40;2.00;;;5.00;99.90;;;;;;5093689;28;20663;-71
2022/01/07 02:25:11;;;;;;;12.37;1.50;;;5.00;99.90;;;;;;5100439;28;20272;-71
2022/01/07 02:27:39;;;;;;;9.90;1.43;;;5.00;99.90;;;;;;5093493;28;20194;-70
2022/01/07 02:30:09;;;;;;;12.67;1.57;;;4.90;99.90;;;;;;5103174;28;20216;-70
2022/01/07 02:32:35;;;;;;;12.93;1.60;;;4.90;99.90;;;;;;5098239;28;20176;-70
2022/01/07 02:35:01;;;;;;;15.63;1.60;;;5.00;99.90;;;;;;5097311;28;20191;-71
2022/01/07 02:37:26;;;;;;;15.37;1.43;;;5.00;99.90;;;;;;5097600;28;20689;-71
2022/01/07 02:39:54;;;;;;;12.90;1.40;;;5.10;99.90;;;;;;5093115;28;20213;-71
2022/01/07 02:42:20;;;;;;;13.33;2.10;;;5.10;99.90;;;;;;5108030;28;20224;-72
2022/01/07 02:44:46;;;;;;;11.07;1.57;;;5.20;99.90;;;;;;5092200;28;20508;-72
2022/01/07 02:47:12;;;;;;;15.77;2.27;;;5.20;99.90;;;;;;5096200;28;20178;-71
2022/01/07 02:49:38;;;;;;;9.03;1.30;;;5.20;99.90;;;;;;5111596;28;20171;-69
2022/01/07 02:52:04;;;;;;;11.53;1.50;;;5.30;99.90;;;;;;5111470;28;20592;-62
2022/01/07 02:54:30;;;;;;;11.10;1.10;;;5.30;99.90;;;;;;5105997;28;20186;-69
2022/01/07 02:56:55;;;;;;;9.30;1.40;;;5.30;99.90;;;;;;5092735;28;20266;-69
2022/01/07 02:59:21;;;;;;;9.13;1.17;;;5.30;99.90;;;;;;5098482;28;20207;-69
2022/01/07 03:01:47;;;;;;;10.83;1.67;;;5.30;99.90;;;;;;5092672;28;20179;-69
2022/01/07 03:04:13;;;;;;;12.83;1.10;;;5.30;99.90;;;;;;5097410;28;20259;-69
2022/01/07 03:06:40;;;;;;;8.17;1.10;;;5.20;99.90;;;;;;5112292;28;20190;-70
2022/01/07 03:09:06;;;;;;;12.67;1.13;;;5.20;99.90;;;;;;5113160;28;20178;-69
2022/01/07 03:11:33;;;;;;;19.70;2.63;;;5.20;99.90;;;;;;5099167;28;20184;-69
2022/01/07 03:13:59;;;;;;;16.97;1.47;;;5.10;99.90;;;;;;5094215;28;20627;-69
2022/01/07 03:16:24;;;;;;;11.80;1.03;;;5.10;99.90;;;;;;5094287;28;20179;-68
2022/01/07 03:18:50;;;;;;;6.77;0.90;;;5.10;99.90;;;;;;5092386;28;20210;-69
2022/01/07 03:21:17;;;;;;;13.13;1.30;;;5.20;99.90;;;;;;5108891;28;20198;-69
2022/01/07 03:23:44;;;;;;;18.10;1.60;;;5.20;99.90;;;;;;5092700;28;20176;-70
2022/01/07 03:26:10;;;;;;;7.77;1.20;;;5.30;99.90;;;;;;5104949;28;20178;-70
2022/01/07 03:28:36;;;;;;;10.37;1.97;;;5.30;99.90;;;;;;5094578;28;20187;-69
2022/01/07 03:31:03;;;;;;;11.57;1.57;;;5.30;99.90;;;;;;5092037;28;20174;-68
2022/01/07 03:33:29;;;;;;;9.80;1.43;;;5.20;99.90;;;;;;5112120;28;20240;-68
2022/01/07 03:35:55;;;;;;;17.77;1.53;;;5.10;99.90;;;;;;5110720;28;20617;-68
2022/01/07 03:38:21;;;;;;;11.17;1.57;;;5.10;99.90;;;;;;5091910;28;20745;-68
2022/01/07 03:40:50;;;;;;;17.10;1.73;;;5.10;99.90;;;;;;5092081;28;20259;-69
2022/01/07 03:43:16;;;;;;;8.50;1.30;;;5.00;99.90;;;;;;5093256;28;20191;-70
2022/01/07 03:45:42;;;;;;;8.97;1.30;;;5.00;99.90;;;;;;5092034;28;20172;-68
2022/01/07 03:48:08;;;;;;;8.00;1.07;;;4.90;99.90;;;;;;5090772;28;20659;-69
2022/01/07 03:50:34;;;;;;;7.53;1.13;;;4.90;99.90;;;;;;5097361;28;20251;-68
2022/01/07 03:53:00;;;;;;;15.30;1.03;;;5.00;99.90;;;;;;5102132;28;20186;-68
2022/01/07 03:55:29;;;;;;;5.77;1.03;;;5.00;99.90;;;;;;5090674;28;20179;-69
2022/01/07 03:57:55;;;;;;;12.60;1.40;;;5.00;99.90;;;;;;5091591;28;20175;-68
2022/01/07 04:00:32;;;;;;;14.53;1.53;;;4.90;99.90;;;;;;5106911;28;20200;-68
2022/01/07 04:02:58;;;;;;;8.33;1.93;;;5.00;99.90;;;;;;5091610;28;20225;-67
2022/01/07 04:05:23;;;;;;;9.10;1.30;;;5.00;99.90;;;;;;5106522;28;20215;-68
2022/01/07 04:07:50;;;;;;;15.23;1.60;;;5.00;99.90;;;;;;5098821;28;20171;-68
2022/01/07 04:10:16;;;;;;;13.23;1.57;;;5.00;99.90;;;;;;5104841;28;20687;-70
2022/01/07 04:12:42;;;;;;;5.37;1.20;;;5.00;99.90;;;;;;5091195;28;20188;-68
2022/01/07 04:15:08;;;;;;;9.33;1.20;;;5.00;99.90;;;;;;5094926;28;20249;-68
2022/01/07 04:17:43;;;;;;;14.47;1.53;;;5.00;99.90;;;;;;5091786;28;20175;-69
2022/01/07 04:20:11;;;;;;;11.00;1.20;;;5.00;99.90;;;;;;5091135;28;20225;-69
2022/01/07 04:22:37;;;;;;;10.00;1.00;;;5.00;99.90;;;;;;5092971;28;20178;-70
2022/01/07 04:25:07;;;;;;;14.53;1.83;;;5.10;99.90;;;;;;5091279;28;20265;-70
2022/01/07 04:27:33;;;;;;;8.67;1.50;;;5.10;99.90;;;;;;5091010;28;20278;-70
2022/01/07 04:29:59;;;;;;;15.00;1.30;;;5.00;99.90;;;;;;5091273;28;20176;-70
2022/01/07 04:32:25;;;;;;;14.67;1.50;;;4.90;99.90;;;;;;5091157;28;20198;-70
2022/01/07 04:34:51;;;;;;;16.57;1.83;;;4.90;99.90;;;;;;5091141;28;20168;-69
2022/01/07 04:37:17;;;;;;;10.87;1.80;;;4.90;99.90;;;;;;5095539;28;20288;-69
2022/01/07 04:39:43;;;;;;;18.43;2.13;;;4.80;99.90;;;;;;5110822;27;20210;-72
2022/01/07 04:42:09;;;;;;;13.70;1.90;;;4.80;99.90;;;;;;5102810;28;20204;-71
2022/01/07 04:44:40;;;;;;;11.90;1.73;;;4.70;99.90;;;;;;5091020;28;20176;-70
2022/01/07 04:47:06;;;;;;;5.80;1.07;;;4.60;99.90;;;;;;5090954;28;20182;-70
2022/01/07 04:49:32;;;;;;;12.17;1.30;;;4.40;99.90;;;;;;5090876;28;20195;-70
2022/01/07 04:51:58;;;;;;;10.70;1.40;;;4.40;99.90;;;;;;5090707;28;20164;-69
2022/01/07 04:54:24;;;;;;;4.07;1.03;;;4.30;99.90;;;;;;5094349;28;20178;-69
2022/01/07 04:56:49;;;;;;;5.50;1.10;;;4.20;99.90;;;;;;5090530;28;20187;-70
2022/01/07 04:59:15;;;;;;;17.63;1.87;;;4.10;99.90;;;;;;5090730;28;20704;-71
2022/01/07 05:01:41;;;;;;;10.97;1.67;;;4.10;99.90;;;;;;5090546;28;20209;-71
2022/01/07 05:04:06;;;;;;;12.40;1.57;;;4.10;99.90;;;;;;5096259;28;20258;-71
2022/01/07 05:06:45;;;;;;;11.80;1.20;;;4.10;99.90;;;;;;5111964;28;20167;-71
2022/01/07 05:09:17;;;;;;;12.27;1.50;;;4.10;99.90;;;;;;5112957;28;20257;-71
2022/01/07 05:11:53;;;;;;;10.73;1.37;;;4.10;99.90;;;;;;5105232;28;20285;-71
2022/01/07 05:14:19;;;;;;;9.00;1.60;;;4.10;99.90;;;;;;5113941;28;20181;-71
2022/01/07 05:16:45;;;;;;;11.47;1.70;;;4.10;99.90;;;;;;5110385;28;20167;-71
2022/01/07 05:19:12;;;;;;;12.83;1.33;;;4.00;99.90;;;;;;5114865;28;20198;-71
2022/01/07 05:21:38;;;;;;;9.00;1.23;;;4.00;99.90;;;;;;5110279;28;20177;-70
2022/01/07 05:24:04;;;;;;;9.17;1.10;;;4.00;99.90;;;;;;5094480;28;20203;-70
2022/01/07 05:26:30;;;;;;;15.23;1.70;;;4.00;99.90;;;;;;5094558;28;20254;-70
2022/01/07 05:28:56;;;;;;;16.23;1.70;;;4.00;99.90;;;;;;5094576;28;20599;-70
2022/01/07 05:31:23;;;;;;;10.40;1.20;;;4.10;99.90;;;;;;5094149;28;20215;-70
2022/01/07 05:33:53;;;;;;;12.57;1.30;;;4.10;99.90;;;;;;5094348;28;20523;-70
2022/01/07 05:36:20;;;;;;;11.83;1.73;;;4.10;99.90;;;;;;5094492;28;20652;-71
2022/01/07 05:38:46;;;;;;;8.63;1.53;;;4.10;99.90;;;;;;5099824;28;20232;-71
2022/01/07 05:41:12;;;;;;;14.97;1.60;;;4.10;99.90;;;;;;5104711;28;20186;-72
2022/01/07 05:43:39;;;;;;;10.73;1.70;;;4.10;99.90;;;;;;5094382;28;20183;-72
2022/01/07 05:46:07;;;;;;;9.57;1.60;;;4.20;99.90;;;;;;5094214;28;20176;-72
2022/01/07 05:48:33;;;;;;;15.70;2.00;;;4.20;99.90;;;;;;5094007;28;20172;-71
2022/01/07 05:50:59;;;;;;;14.73;1.40;;;4.30;99.90;;;;;;5093960;28;20187;-72
2022/01/07 05:53:25;;;;;;;21.33;2.20;;;4.50;99.90;;;;;;5109833;28;20171;-72
2022/01/07 05:55:51;;;;;;;12.20;1.67;;;4.60;99.90;;;;;;5106072;28;20267;-72
2022/01/07 05:58:17;;;;;;;18.53;2.07;;;4.60;99.90;;;;;;5113596;28;20221;-69
2022/01/07 06:00:42;;;;;;;20.80;2.17;;;4.60;99.90;;;;;;5113953;28;20190;-68
2022/01/07 06:03:08;;;;;;;8.93;1.80;;;4.70;99.90;;;;;;5098720;28;20255;-69
2022/01/07 06:05:34;;;;;;;19.40;2.03;;;4.80;99.90;;;;;;5093685;28;20622;-69
2022/01/07 06:07:59;;;;;;;21.87;2.00;;;4.80;99.90;;;;;;5105268;28;20189;-69
2022/01/07 06:10:25;;;;;;;15.80;1.67;;;4.80;99.90;;;;;;5114016;28;20179;-69
2022/01/07 06:12:51;;;;;;;12.80;2.07;;;5.00;99.90;;;;;;5113972;28;20629;-62
2022/01/07 06:15:17;;;;;;;18.97;2.07;;;4.90;99.90;;;;;;5109233;28;20219;-61
2022/01/07 06:17:42;;;;;;;19.23;2.40;;;5.00;99.90;;;;;;5104329;28;20541;-69
2022/01/07 06:20:09;;;;;;;22.17;2.33;;;5.00;99.90;;;;;;5106134;28;20222;-69
2022/01/07 06:22:34;;;;;;;16.60;1.80;;;5.10;99.90;;;;;;5107630;28;20214;-69
2022/01/07 06:25:02;;;;;;;7.00;1.17;;;5.20;99.90;;;;;;5111608;28;20206;-69
2022/01/07 06:27:28;;;;;;;7.87;1.27;;;5.10;99.90;;;;;;5113195;28;20262;-69
2022/01/07 06:29:54;;;;;;;7.53;1.30;;;5.20;99.90;;;;;;5113510;28;20257;-69
2022/01/07 06:32:20;;;;;;;13.53;1.50;;;5.20;99.90;;;;;;5093441;28;20230;-69
2022/01/07 06:34:46;;;;;;;13.30;1.30;;;5.30;99.90;;;;;;5091608;28;20191;-69
2022/01/07 06:37:12;;;;;;;16.77;2.43;;;5.30;99.90;;;;;;5092732;28;20290;-69
2022/01/07 06:39:37;;;;;;;9.00;1.10;;;5.20;99.90;;;;;;5108587;28;20250;-69
2022/01/07 06:42:04;;;;;;;7.77;0.60;;;5.20;99.90;;;;;;5113230;28;20163;-69
2022/01/07 06:44:29;;;;;;;11.37;1.63;;;5.20;99.90;;;;;;5111341;28;20555;-69
2022/01/07 06:46:55;;;;;;;9.30;1.33;;;5.20;99.90;;;;;;5097826;28;20168;-67
2022/01/07 06:49:21;;;;;;;6.70;0.80;;;5.10;99.90;;;;;;5092986;28;20175;-69
2022/01/07 06:51:47;;;;;;;5.80;1.17;;;5.00;99.90;;;;;;5092870;28;20172;-69
2022/01/07 06:54:14;;;;;;;10.93;1.37;;;5.00;99.90;;;;;;5092822;28;20172;-69
2022/01/07 06:56:41;;;;;;;12.80;1.40;;;4.90;99.90;;;;;;5092360;28;20522;-70
2022/01/07 06:59:07;;;;;;;9.90;1.53;;;4.90;99.90;;;;;;5092553;28;20286;-69
2022/01/07 07:01:33;;;;;;;7.83;1.13;;;4.90;99.90;;;;;;5092496;28;20195;-70
2022/01/07 07:03:59;;;;;;;8.73;1.00;;;4.80;99.90;;;;;;5093913;28;20179;-69
2022/01/07 07:06:25;;;;;;;7.10;0.80;;;4.70;99.90;;;;;;5092459;28;20176;-69
2022/01/07 07:08:50;;;;;;;8.80;1.40;;;4.40;99.90;;;;;;5104221;28;20203;-69
2022/01/07 07:11:16;;;;;;;7.00;0.90;;;4.20;99.90;;;;;;5112364;28;20178;-69
2022/01/07 07:13:42;;;;;;;8.60;0.80;;;4.00;99.90;;;;;;5112838;28;20166;-70
2022/01/07 07:16:08;;;;;;;9.80;1.23;;;4.00;99.90;;;;;;5100838;28;20207;-69
2022/01/07 07:18:33;;;;;;;12.33;1.20;;;3.90;99.90;;;;;;5091012;28;20219;-70
2022/01/07 07:20:59;;;;;;;11.90;1.20;;;3.80;99.90;;;;;;5095894;28;20258;-70
2022/01/07 07:23:25;;;;;;;10.40;1.27;;;3.80;99.90;;;;;;5110042;28;20181;-70
2022/01/07 07:25:51;;;;;;;9.90;1.20;;;3.70;99.90;;;;;;5109622;28;20657;-70
2022/01/07 07:28:19;;;;;;;18.53;2.17;;;3.70;99.90;;;;;;5093130;28;20179;-63
2022/01/07 07:30:45;;;;;;;10.57;1.33;;;3.70;99.90;;;;;;5091903;28;20207;-65
2022/01/07 07:38:35;;;;;;;9.67;1.10;;;3.80;99.90;;;;;;5100147;28;20225;-65
2022/01/07 07:41:01;;;;;;;15.37;1.77;;;3.70;99.90;;;;;;5110641;28;20175;-66
2022/01/07 07:43:27;;;;;;;6.53;1.30;;;3.80;99.90;;;;;;5110349;28;20705;-65
2022/01/07 07:45:53;;;;;;;12.47;1.83;;;3.80;99.90;;;;;;5096887;28;20168;-64
2022/01/07 07:48:19;;;;;;;11.00;1.43;;;3.90;99.90;;;;;;5091677;28;20257;-63
2022/01/07 07:50:45;;;;;;;16.40;1.60;;;3.80;99.90;;;;;;5102931;28;20179;-67
2022/01/07 07:53:11;;;;;;;10.20;1.70;;;3.80;99.90;;;;;;5110215;28;20308;-66
2022/01/07 07:55:37;;;;;;;9.10;1.50;;;3.70;99.90;;;;;;5099522;28;20212;-66
2022/01/07 07:58:03;;;;;;;12.57;1.13;;;3.60;99.90;;;;;;5091538;28;20536;-66
2022/01/07 08:00:28;;;;;;;17.00;2.00;;;3.60;99.90;;;;;;5092375;28;20189;-66
2022/01/07 08:02:54;;;;;;;11.20;1.80;;;3.50;99.90;;;;;;5096470;28;20183;-67
2022/01/07 08:05:20;;;;;;;13.33;1.73;;;3.50;99.90;;;;;;5101028;28;20186;-66
2022/01/07 08:07:46;;;;;;;13.07;1.73;;;3.50;99.90;;;;;;5109271;28;20175;-67
2022/01/07 08:10:12;;;;;;;9.03;1.40;;;3.50;99.90;;;;;;5094923;28;20167;-67
2022/01/07 08:13:14;;;;;;;15.40;1.53;;;3.50;99.90;;;;;;5094007;28;20175;-66
2022/01/07 08:15:58;;;;;;;9.07;1.63;;;3.50;99.90;;;;;;5094709;28;20661;-66
2022/01/07 08:18:27;;;;;;;17.23;1.60;;;3.60;99.90;;;;;;5093825;28;20286;-66
2022/01/07 08:20:54;;;;;;;10.47;1.70;;;3.60;99.90;;;;;;5101091;28;20179;-67
2022/01/07 08:23:20;;;;;;;15.47;1.70;;;3.60;99.90;;;;;;5098551;28;20215;-67
2022/01/07 08:25:46;;;;;;;17.37;1.50;;;3.60;99.90;;;;;;5091689;28;20325;-69
2022/01/07 08:28:14;;;;;;;20.17;1.73;;;3.60;99.90;;;;;;5103378;28;20220;-68
2022/01/07 08:36:16;;;;;;;8.20;1.57;;;3.80;99.90;;;;;;5111392;28;20259;-69
2022/01/07 08:38:43;;;;;;;10.50;1.63;;;3.90;99.90;;;;;;5111171;28;20223;-70
2022/01/07 08:41:10;;;;;;;16.47;1.27;;;4.00;99.90;;;;;;5094150;28;20187;-68
2022/01/07 08:43:36;;;;;;;7.37;1.43;;;4.00;99.90;;;;;;5100255;28;20190;-67
2022/01/07 08:46:02;;;;;;;18.20;2.13;;;4.00;99.90;;;;;;5091898;28;20188;-67
2022/01/07 08:48:30;;;;;;;14.50;1.80;;;4.10;99.90;;;;;;5095906;28;20209;-67
2022/01/07 08:50:55;;;;;;;12.70;1.93;;;4.10;99.90;;;;;;5090740;28;20649;-67
2022/01/07 08:53:21;;;;;;;14.47;2.10;;;4.70;99.90;;;;;;5089215;28;20180;-67
2022/01/07 08:55:48;;;;;;;14.43;2.43;;;4.30;99.90;;;;;;5090836;28;20172;-68
2022/01/07 08:58:14;;;;;;;8.97;1.50;;;4.40;99.90;;;;;;5090751;28;20203;-66
2022/01/07 09:00:40;;;;;;;11.17;1.77;;;4.70;99.90;;;;;;5094970;28;20179;-65
2022/01/07 09:03:06;;;;;;;15.80;1.90;;;5.20;99.90;;;;;;5104065;28;20257;-62
2022/01/07 09:05:32;;;;;;;12.20;1.53;;;5.40;99.90;;;;;;5110404;28;20171;-62
2022/01/07 09:07:58;;;;;;;20.00;3.30;;;5.50;99.90;;;;;;5111106;28;20564;-63
2022/01/07 09:10:24;;;;;;;19.50;2.00;;;5.50;99.90;;;;;;5108882;28;20171;-62
2022/01/07 09:12:50;;;;;;;12.20;1.87;;;5.60;99.90;;;;;;5111025;28;20180;-62
2022/01/07 09:15:16;;;;;;;12.03;1.73;;;5.50;99.90;;;;;;5111148;28;20172;-63
2022/01/07 09:17:42;;;;;;;12.30;1.80;;;5.40;99.90;;;;;;5111004;28;20163;-63
2022/01/07 09:20:09;;;;;;;10.20;1.80;;;6.40;99.90;;;;;;5100344;28;20351;-67
2022/01/07 09:22:36;;;;;;;19.63;2.00;;;5.30;99.90;;;;;;5102497;28;20183;-60
2022/01/07 09:25:04;;;;;;;9.03;1.37;;;5.40;99.90;;;;;;5090576;28;20164;-59
2022/01/07 09:27:30;;;;;;;8.73;1.93;;;5.40;99.90;;;;;;5092556;28;20167;-60
2022/01/07 09:29:56;;;;;;;15.37;1.90;;;5.40;99.90;;;;;;5090404;28;20172;-59
2022/01/07 09:32:22;;;;;;;16.00;1.97;;;5.50;99.90;;;;;;5096173;28;20262;-59
2022/01/07 09:34:48;;;;;;;12.43;2.13;;;5.50;99.90;;;;;;5109996;28;20179;-58
2022/01/07 09:37:14;;;;;;;12.77;2.17;;;5.80;99.90;;;;;;5101845;28;20215;-63
2022/01/07 09:39:39;;;;;;;6.63;1.33;;;6.10;99.90;;;;;;5098665;28;20807;-63
2022/01/07 09:42:06;;;;;;;9.73;2.10;;;6.40;99.90;;;;;;5090178;28;21156;-63
2022/01/07 09:44:43;;;;;;;12.20;2.17;;;6.60;99.90;;;;;;5091258;28;20229;-63
2022/01/07 09:47:11;;;;;;;15.33;1.80;;;6.60;99.90;;;;;;5088986;28;20175;-62
2022/01/07 09:49:40;;;;;;;14.50;1.80;;;6.40;99.90;;;;;;5098641;28;20262;-62
2022/01/07 09:52:07;;;;;;;25.23;2.30;;;6.30;99.90;;;;;;5110095;28;20182;-62
2022/01/07 09:54:35;;;;;;;10.37;1.63;;;6.20;99.90;;;;;;5113358;28;20649;-61
2022/01/07 09:57:02;;;;;;;11.67;1.77;;;6.20;99.90;;;;;;5113950;28;20167;-62
2022/01/07 09:59:28;;;;;;;12.63;2.00;;;6.20;99.90;;;;;;5111610;28;20207;-61
2022/01/07 10:01:57;;;;;;;7.37;1.80;;;6.20;99.90;;;;;;5110599;28;20649;-61
2022/01/07 10:04:33;;;;;;;9.93;1.93;;;6.10;99.90;;;;;;5114303;28;20175;-62
2022/01/07 10:07:21;;;;;;;5.70;1.37;;;6.10;99.90;;;;;;5114113;28;20174;-58
2022/01/07 10:10:19;;;;;;;13.90;2.20;;;6.10;99.90;;;;;;5100032;28;20281;-61
2022/01/07 10:12:50;;;;;;;14.47;2.00;;;6.10;99.90;;;;;;5104861;28;20361;-60
2022/01/07 10:15:18;;;;;;;20.37;2.00;;;6.10;99.90;;;;;;5107910;28;20233;-59
2022/01/07 10:17:59;;;;;;;16.20;2.50;;;6.10;99.90;;;;;;5101016;28;20176;-58
2022/01/07 10:20:38;;;;;;;16.40;2.63;;;6.10;99.90;;;;;;5111555;28;20245;-58
2022/01/07 10:23:09;;;;;;;10.17;1.70;;;6.10;99.90;;;;;;5112738;28;20235;-58
2022/01/07 10:25:46;;;;;;;10.73;1.27;;;6.10;99.90;;;;;;5111827;28;20273;-59
2022/01/07 10:28:19;;;;;;;22.13;2.13;;;6.10;99.90;;;;;;5111792;28;20276;-58
2022/01/07 10:30:55;;;;;;;15.23;1.47;;;6.10;99.90;;;;;;5111897;28;20649;-59
2022/01/07 10:33:29;;;;;;;10.00;1.17;;;6.10;99.90;;;;;;5107639;28;20587;-60
2022/01/07 10:35:58;;;;;;;12.20;1.33;;;6.10;99.90;;;;;;5091188;28;20206;-62
2022/01/07 10:38:26;;;;;;;11.20;1.83;;;6.10;99.90;;;;;;5090830;28;20469;-59
2022/01/07 10:40:54;;;;;;;10.80;1.57;;;6.10;99.90;;;;;;5092916;28;20217;-63
2022/01/07 10:43:25;;;;;;;11.03;1.60;;;6.00;99.90;;;;;;5091126;28;20264;-59
2022/01/07 10:45:59;;;;;;;9.67;1.50;;;6.00;99.90;;;;;;5091307;28;20240;-60
2022/01/07 10:48:47;;;;;;;10.20;1.20;;;6.10;99.90;;;;;;5091044;28;20170;-60
2022/01/07 10:51:18;;;;;;;9.60;1.20;;;6.20;99.90;;;;;;5091539;28;20175;-60
2022/01/07 10:53:51;;;;;;;10.53;1.47;;;6.30;99.90;;;;;;5093673;28;20173;-60
2022/01/07 10:56:19;;;;;;;6.67;1.50;;;6.40;99.90;;;;;;5107148;27;20183;-60
2022/01/07 10:58:48;;;;;;;10.90;1.60;;;6.60;99.90;;;;;;5110624;27;20222;-60
2022/01/07 11:01:19;;;;;;;14.57;1.87;;;6.80;99.90;;;;;;5105368;28;20266;-60
2022/01/07 11:03:50;;;;;;;7.03;1.30;;;7.00;99.90;;;;;;5105835;28;20168;-60
2022/01/07 11:06:16;;;;;;;8.07;1.00;;;7.00;99.90;;;;;;5100974;28;20187;-60
2022/01/07 11:08:42;;;;;;;13.87;1.60;;;7.10;99.90;;;;;;5095980;28;20172;-59
2022/01/07 11:11:10;;;;;;;8.43;1.23;;;7.10;99.90;;;;;;5104665;28;20222;-60
2022/01/07 11:13:37;;;;;;;13.57;1.80;;;7.10;99.90;;;;;;5100465;28;20186;-59
2022/01/07 11:16:04;;;;;;;10.97;1.27;;;7.10;99.90;;;;;;5112790;28;20706;-59
2022/01/07 11:18:31;;;;;;;9.87;1.43;;;7.10;99.90;;;;;;5098437;28;20179;-59
2022/01/07 11:20:58;;;;;;;12.43;1.90;;;7.00;99.90;;;;;;5108346;28;20190;-59
2022/01/07 11:23:28;;;;;;;14.90;1.50;;;7.00;99.90;;;;;;5092116;28;20179;-59
2022/01/07 11:26:06;;;;;;;15.47;1.77;;;7.00;99.90;;;;;;5099223;28;20263;-59
2022/01/07 11:28:32;;;;;;;8.33;1.50;;;7.00;99.90;;;;;;5112493;28;20214;-59
2022/01/07 11:31:13;;;;;;;7.37;1.30;;;7.00;99.90;;;;;;5102961;28;20171;-59
2022/01/07 11:33:40;;;;;;;7.67;1.40;;;7.00;99.90;;;;;;5103216;28;20254;-60
2022/01/07 11:36:33;;;;;;;13.80;1.63;;;7.00;99.90;;;;;;5112096;28;20172;-59
2022/01/07 11:39:04;;;;;;;9.33;1.60;;;7.10;99.90;;;;;;5111691;28;20222;-60
2022/01/07 11:41:48;;;;;;;12.63;1.83;;;7.10;99.90;;;;;;5112315;28;20697;-59
2022/01/07 11:44:21;;;;;;;10.43;1.43;;;7.30;99.90;;;;;;5112232;27;20185;-59
2022/01/07 11:46:47;;;;;;;7.47;1.30;;;7.40;99.90;;;;;;5112302;28;20651;-59
2022/01/07 11:49:58;;;;;;;18.43;1.80;;;7.50;99.90;;;;;;5112056;28;20179;-59
2022/01/07 11:52:37;;;;;;;10.60;1.70;;;7.60;99.90;;;;;;5083246;28;20171;-59
2022/01/07 11:55:26;;;;;;;15.23;1.80;;;7.60;99.90;;;;;;5112087;28;20171;-59
2022/01/07 11:57:54;;;;;;;8.73;1.43;;;7.50;99.90;;;;;;5112143;28;20167;-59
2022/01/07 12:00:51;;;;;;;8.90;1.57;;;7.40;99.90;;;;;;5111588;28;20245;-58
2022/01/07 12:03:34;;;;;;;14.73;1.70;;;7.40;99.90;;;;;;5111864;28;20263;-58
2022/01/07 12:06:01;;;;;;;11.70;1.60;;;7.30;99.90;;;;;;5111597;28;20179;-59
2022/01/07 12:09:09;;;;;;;12.67;1.70;;;7.30;99.90;;;;;;5111657;28;20159;-58
2022/01/07 12:11:42;;;;;;;17.63;1.70;;;7.30;99.90;;;;;;5111761;28;20194;-58
2022/01/07 12:14:12;;;;;;;20.60;2.07;;;7.30;99.90;;;;;;5111750;28;20199;-60
2022/01/07 12:16:39;;;;;;;15.97;2.10;;;7.30;99.90;;;;;;5110691;28;20266;-60
2022/01/07 12:19:21;;;;;;;9.07;2.00;;;7.20;99.90;;;;;;5111343;28;20245;-60
2022/01/07 12:21:49;;;;;;;14.43;2.00;;;7.30;99.90;;;;;;5111376;28;20167;-59
2022/01/07 12:24:20;;;;;;;16.53;2.10;;;7.90;99.90;;;;;;5109959;28;20168;-59
2022/01/07 12:26:46;;;;;;;14.27;2.00;;;7.30;99.90;;;;;;5091073;28;20249;-59
2022/01/07 12:29:20;;;;;;;18.27;2.10;;;7.30;99.90;;;;;;5091138;28;20705;-59
2022/01/07 12:31:50;;;;;;;8.50;0.83;;;7.20;99.90;;;;;;5091145;28;20166;-59
2022/01/07 12:34:27;;;;;;;9.87;1.00;;;7.00;99.90;;;;;;5091073;28;20171;-59
2022/01/07 12:36:57;;;;;;;9.77;0.90;;;6.80;99.90;;;;;;5090491;28;20171;-59
2022/01/07 12:39:29;;;;;;;3.80;0.70;;;6.70;99.90;;;;;;5100773;28;20293;-59
2022/01/07 12:41:56;;;;;;;6.60;0.63;;;6.50;99.90;;;;;;5090943;28;20251;-59
2022/01/07 12:44:23;;;;;;;3.63;0.80;;;6.40;99.90;;;;;;5090808;28;20315;-59
2022/01/07 12:46:53;;;;;;;9.73;1.10;;;6.30;99.90;;;;;;5091000;28;20178;-59
2022/01/07 12:49:19;;;;;;;3.47;0.67;;;6.30;99.90;;;;;;5090959;28;20663;-59
2022/01/07 12:52:16;;;;;;;7.60;1.00;;;6.20;99.90;;;;;;5090892;28;20650;-59
2022/01/07 12:55:02;;;;;;;10.87;1.63;;;6.10;99.90;;;;;;5098305;28;20621;-59
2022/01/07 12:57:42;;;;;;;5.13;0.90;;;6.00;99.90;;;;;;5110821;28;20175;-60
2022/01/07 13:00:17;;;;;;;1.47;0.60;;;5.90;99.90;;;;;;5110780;28;20257;-58
2022/01/07 13:02:49;;;;;;;4.73;0.60;;;5.70;99.90;;;;;;5111051;28;20171;-58
2022/01/07 13:05:25;;;;;;;2.20;0.50;;;5.50;99.90;;;;;;5110709;28;20538;-58
2022/01/07 13:07:52;;;;;;;4.43;0.60;;;5.40;99.90;;;;;;5110602;28;20499;-58